Time;durP1;ratioP1;P1;durP2;ratioP2;P2;SDS_P1;SDS_P2;PMS_P1;PMS_P2;Temp;Humidity;BMP_temperature;BMP_pressure;BME280_temperature;BME280_humidity;BME280_pressure;Samples;Min_cycle;Max_cycle;Signal;HPM_P1;HPM_P2
2021/03/04 00:00:26;;;;;;;14.90;10.07;;;;;;;;;;5052209;28;20025;-65
2021/03/04 00:02:52;;;;;;;22.83;13.23;;;;;;;;;;5051599;28;20025;-65
2021/03/04 00:05:18;;;;;;;14.13;10.80;;;;;;;;;;5052280;28;20056;-65
2021/03/04 00:07:44;;;;;;;16.95;11.35;;;;;;;;;;5033323;28;20425;-66
2021/03/04 00:10:14;;;;;;;13.93;11.55;;;;;;;;;;5051591;28;20069;-66
2021/03/04 00:12:40;;;;;;;16.42;10.45;;;;;;;;;;5051412;28;20108;-66
2021/03/04 00:15:08;;;;;;;23.23;12.65;;;;;;;;;;5052112;28;20423;-66
2021/03/04 00:17:34;;;;;;;16.60;12.13;;;;;;;;;;5052236;28;20032;-65
2021/03/04 00:20:00;;;;;;;20.05;12.77;;;;;;;;;;5050915;28;20029;-65
2021/03/04 00:22:26;;;;;;;17.23;12.52;;;;;;;;;;5051653;28;20029;-65
2021/03/04 00:24:52;;;;;;;26.63;12.73;;;;;;;;;;5050574;28;20119;-65
2021/03/04 00:27:18;;;;;;;19.33;12.82;;;;;;;;;;5051758;28;20021;-65
2021/03/04 00:29:44;;;;;;;16.63;10.98;;;;;;;;;;5050587;28;20048;-65
2021/03/04 00:32:10;;;;;;;19.95;11.30;;;;;;;;;;5051347;28;20017;-65
2021/03/04 00:34:36;;;;;;;14.65;11.25;;;;;;;;;;5051499;28;20116;-65
2021/03/04 00:37:02;;;;;;;17.25;11.20;;;;;;;;;;5051058;28;20100;-66
2021/03/04 00:39:28;;;;;;;21.70;13.60;;;;;;;;;;5051458;28;20076;-66
2021/03/04 00:41:55;;;;;;;13.52;10.48;;;;;;;;;;5050811;28;20025;-66
2021/03/04 00:44:21;;;;;;;15.95;12.77;;;;;;;;;;5051471;28;20036;-65
2021/03/04 00:46:47;;;;;;;15.75;13.13;;;;;;;;;;5051106;28;20037;-65
2021/03/04 00:49:13;;;;;;;17.98;12.18;;;;;;;;;;5051413;28;20040;-66
2021/03/04 00:51:39;;;;;;;16.85;13.32;;;;;;;;;;5051016;28;20171;-66
2021/03/04 00:54:07;;;;;;;18.92;13.82;;;;;;;;;;5050863;28;20037;-65
2021/03/04 00:56:33;;;;;;;19.90;12.95;;;;;;;;;;5051375;28;20033;-65
2021/03/04 00:58:59;;;;;;;23.23;13.27;;;;;;;;;;5050562;28;20616;-65
2021/03/04 01:01:25;;;;;;;17.73;12.77;;;;;;;;;;5050981;28;20035;-65
2021/03/04 01:03:51;;;;;;;17.38;13.00;;;;;;;;;;5050516;28;20032;-66
2021/03/04 01:06:17;;;;;;;23.25;17.27;;;;;;;;;;5050741;28;20132;-65
2021/03/04 01:08:47;;;;;;;20.35;13.23;;;;;;;;;;5050469;28;20160;-65
2021/03/04 01:11:14;;;;;;;19.77;13.98;;;;;;;;;;5050803;28;20391;-65
2021/03/04 01:13:40;;;;;;;16.15;12.65;;;;;;;;;;5050436;28;20032;-66
2021/03/04 01:16:07;;;;;;;21.60;15.48;;;;;;;;;;5050849;28;20506;-65
2021/03/04 01:18:33;;;;;;;17.58;13.98;;;;;;;;;;5051070;28;20017;-65
2021/03/04 01:20:59;;;;;;;21.58;14.50;;;;;;;;;;5049993;28;20040;-65
2021/03/04 01:23:25;;;;;;;20.80;14.48;;;;;;;;;;5050649;28;20032;-65
2021/03/04 01:25:51;;;;;;;26.33;13.73;;;;;;;;;;5050202;28;20029;-65
2021/03/04 01:28:17;;;;;;;19.98;14.75;;;;;;;;;;5050576;28;20033;-65
2021/03/04 01:30:44;;;;;;;20.02;15.10;;;;;;;;;;5049750;28;20051;-65
2021/03/04 01:33:10;;;;;;;16.55;12.93;;;;;;;;;;5050288;28;20440;-65
2021/03/04 01:35:36;;;;;;;23.60;17.40;;;;;;;;;;5050270;28;20032;-65
2021/03/04 01:38:02;;;;;;;22.27;15.10;;;;;;;;;;5049925;28;20119;-65
2021/03/04 01:40:29;;;;;;;23.10;16.50;;;;;;;;;;5050276;28;20125;-65
2021/03/04 01:42:55;;;;;;;19.70;14.68;;;;;;;;;;5049542;28;20269;-65
2021/03/04 01:45:21;;;;;;;32.38;15.40;;;;;;;;;;5050349;28;20029;-65
2021/03/04 01:47:48;;;;;;;19.75;14.27;;;;;;;;;;5049888;28;20033;-65
2021/03/04 01:50:15;;;;;;;19.70;15.40;;;;;;;;;;5050281;28;20488;-65
2021/03/04 01:52:41;;;;;;;22.15;15.63;;;;;;;;;;5049737;28;20074;-65
2021/03/04 01:55:07;;;;;;;28.65;18.50;;;;;;;;;;5050318;28;20029;-65
2021/03/04 01:57:34;;;;;;;20.33;15.50;;;;;;;;;;5050314;28;20467;-65
2021/03/04 02:00:00;;;;;;;24.05;16.25;;;;;;;;;;5049498;28;20216;-65
2021/03/04 02:02:27;;;;;;;25.92;15.32;;;;;;;;;;5050007;28;20116;-65
2021/03/04 02:04:53;;;;;;;24.00;14.95;;;;;;;;;;5049262;28;20119;-65
2021/03/04 02:07:28;;;;;;;21.30;15.38;;;;;;;;;;5049760;28;20195;-65
2021/03/04 02:10:14;;;;;;;31.23;15.30;;;;;;;;;;5049223;28;20123;-65
2021/03/04 02:13:04;;;;;;;27.95;18.10;;;;;;;;;;5041145;28;20025;-65
2021/03/04 02:16:02;;;;;;;25.83;16.20;;;;;;;;;;5039837;28;20052;-65
2021/03/04 02:18:31;;;;;;;27.15;18.30;;;;;;;;;;5006062;28;20032;-65
2021/03/04 02:21:00;;;;;;;21.73;17.10;;;;;;;;;;5049248;28;20252;-65
2021/03/04 02:23:26;;;;;;;23.90;15.93;;;;;;;;;;5049437;28;20488;-65
2021/03/04 02:26:08;;;;;;;24.08;16.52;;;;;;;;;;5049283;28;20025;-65
2021/03/04 02:28:35;;;;;;;29.27;17.73;;;;;;;;;;5049665;28;20065;-65
2021/03/04 02:31:03;;;;;;;17.20;13.07;;;;;;;;;;5048802;28;20039;-65
2021/03/04 02:33:29;;;;;;;25.77;15.93;;;;;;;;;;5049391;28;20021;-65
2021/03/04 02:35:56;;;;;;;22.83;18.08;;;;;;;;;;5049044;28;20086;-65
2021/03/04 02:38:22;;;;;;;27.38;17.27;;;;;;;;;;5049768;28;20025;-65
2021/03/04 02:40:51;;;;;;;25.67;18.52;;;;;;;;;;5048877;28;20485;-65
2021/03/04 02:43:20;;;;;;;29.90;15.57;;;;;;;;;;5049587;28;20032;-65
2021/03/04 02:45:47;;;;;;;24.65;16.20;;;;;;;;;;5048996;28;20043;-65
2021/03/04 02:48:17;;;;;;;31.40;18.20;;;;;;;;;;5049496;28;20041;-65
2021/03/04 02:50:45;;;;;;;28.05;18.33;;;;;;;;;;5049097;28;20051;-65
2021/03/04 02:53:12;;;;;;;27.60;17.13;;;;;;;;;;5049647;28;20036;-65
2021/03/04 02:55:39;;;;;;;22.52;17.25;;;;;;;;;;5049618;28;20468;-65
2021/03/04 02:58:08;;;;;;;25.70;18.67;;;;;;;;;;5049709;28;20372;-65
2021/03/04 03:00:35;;;;;;;27.40;19.23;;;;;;;;;;5049307;28;20029;-65
2021/03/04 03:03:02;;;;;;;19.20;17.27;;;;;;;;;;5049030;28;20076;-65
2021/03/04 03:05:31;;;;;;;29.13;17.63;;;;;;;;;;5049237;28;20120;-65
2021/03/04 03:07:57;;;;;;;24.55;16.95;;;;;;;;;;5048681;28;20071;-65
2021/03/04 03:10:23;;;;;;;31.50;21.00;;;;;;;;;;5049384;28;20053;-65
2021/03/04 03:12:50;;;;;;;25.20;18.63;;;;;;;;;;5048758;28;20064;-65
2021/03/04 03:15:17;;;;;;;23.45;18.35;;;;;;;;;;5049710;28;20029;-65
2021/03/04 03:17:43;;;;;;;28.88;17.02;;;;;;;;;;5048971;28;20112;-65
2021/03/04 03:20:11;;;;;;;21.17;17.23;;;;;;;;;;5049288;28;20087;-65
2021/03/04 03:22:38;;;;;;;26.02;16.27;;;;;;;;;;5049083;28;20025;-65
2021/03/04 03:25:05;;;;;;;22.73;16.13;;;;;;;;;;5049088;28;20032;-65
2021/03/04 03:27:31;;;;;;;23.92;17.52;;;;;;;;;;5048917;28;20044;-65
2021/03/04 03:29:57;;;;;;;22.50;17.20;;;;;;;;;;5048136;28;20040;-66
2021/03/04 03:32:25;;;;;;;23.92;17.23;;;;;;;;;;5049210;28;20021;-65
2021/03/04 03:34:52;;;;;;;28.27;18.30;;;;;;;;;;5047780;28;20519;-65
2021/03/04 03:37:18;;;;;;;27.73;18.45;;;;;;;;;;5048704;28;20025;-65
2021/03/04 03:39:49;;;;;;;28.67;18.15;;;;;;;;;;5048350;28;20116;-65
2021/03/04 03:42:16;;;;;;;21.90;17.27;;;;;;;;;;5048733;28;20029;-65
2021/03/04 03:44:42;;;;;;;23.45;15.82;;;;;;;;;;5050899;28;20031;-65
2021/03/04 03:47:08;;;;;;;22.50;16.65;;;;;;;;;;5052507;28;20021;-65
2021/03/04 03:49:37;;;;;;;24.50;17.42;;;;;;;;;;5052429;28;20040;-65
2021/03/04 03:52:03;;;;;;;27.05;18.23;;;;;;;;;;5052182;28;20483;-65
2021/03/04 03:54:30;;;;;;;25.02;19.55;;;;;;;;;;5052698;28;20029;-65
2021/03/04 03:56:57;;;;;;;23.20;18.85;;;;;;;;;;5051953;28;20099;-65
2021/03/04 03:59:23;;;;;;;22.80;17.20;;;;;;;;;;5052476;28;20029;-65
2021/03/04 04:01:50;;;;;;;22.70;17.52;;;;;;;;;;5051808;28;20472;-65
2021/03/04 04:04:16;;;;;;;28.77;18.48;;;;;;;;;;5052312;28;20127;-65
2021/03/04 04:06:44;;;;;;;25.67;18.75;;;;;;;;;;5051067;28;20466;-65
2021/03/04 04:09:10;;;;;;;24.02;18.88;;;;;;;;;;5052357;28;20090;-65
2021/03/04 04:11:37;;;;;;;27.55;18.63;;;;;;;;;;5052191;28;20062;-65
2021/03/04 04:14:03;;;;;;;25.42;18.60;;;;;;;;;;5051577;28;20044;-65
2021/03/04 04:16:29;;;;;;;29.38;19.40;;;;;;;;;;5052206;28;20033;-65
2021/03/04 04:18:56;;;;;;;26.67;19.65;;;;;;;;;;5051470;28;20021;-65
2021/03/04 04:21:23;;;;;;;24.67;18.83;;;;;;;;;;5051979;28;20028;-65
2021/03/04 04:23:49;;;;;;;29.02;21.67;;;;;;;;;;5051240;28;20079;-65
2021/03/04 04:26:15;;;;;;;26.42;20.63;;;;;;;;;;5051852;28;20107;-65
2021/03/04 04:28:41;;;;;;;26.58;19.25;;;;;;;;;;5051306;28;20037;-65
2021/03/04 04:31:07;;;;;;;28.80;21.48;;;;;;;;;;5051761;28;20025;-65
2021/03/04 04:33:33;;;;;;;32.90;19.27;;;;;;;;;;5052091;28;20029;-65
2021/03/04 04:36:00;;;;;;;23.65;18.13;;;;;;;;;;5050504;28;20590;-65
2021/03/04 04:38:26;;;;;;;33.20;19.80;;;;;;;;;;5051549;28;20071;-65
2021/03/04 04:40:52;;;;;;;30.83;20.60;;;;;;;;;;5050603;28;20039;-65
2021/03/04 04:43:18;;;;;;;32.78;21.90;;;;;;;;;;5051264;28;20029;-65
2021/03/04 04:45:44;;;;;;;33.60;21.45;;;;;;;;;;5050938;28;20039;-65
2021/03/04 04:48:11;;;;;;;30.33;20.75;;;;;;;;;;5051459;28;20052;-65
2021/03/04 04:50:37;;;;;;;30.23;20.77;;;;;;;;;;5050986;28;20033;-65
2021/03/04 04:53:03;;;;;;;26.65;20.52;;;;;;;;;;5050822;28;20112;-65
2021/03/04 04:55:29;;;;;;;31.52;22.15;;;;;;;;;;5051334;28;20052;-66
2021/03/04 04:57:55;;;;;;;34.53;21.83;;;;;;;;;;5050874;28;20099;-65
2021/03/04 05:00:21;;;;;;;36.78;22.00;;;;;;;;;;5051320;28;20506;-65
2021/03/04 05:02:47;;;;;;;34.65;25.00;;;;;;;;;;5050516;28;20432;-65
2021/03/04 05:05:13;;;;;;;34.42;21.55;;;;;;;;;;5050982;28;20035;-65
2021/03/04 05:07:39;;;;;;;26.13;22.17;;;;;;;;;;5042264;28;20053;-65
2021/03/04 05:10:06;;;;;;;28.38;19.77;;;;;;;;;;5050679;28;20044;-65
2021/03/04 05:12:32;;;;;;;32.78;21.73;;;;;;;;;;5050781;28;20072;-65
2021/03/04 05:14:58;;;;;;;37.78;22.92;;;;;;;;;;5050762;28;20059;-65
2021/03/04 05:17:24;;;;;;;31.42;21.58;;;;;;;;;;5050880;28;20080;-65
2021/03/04 05:19:50;;;;;;;34.75;24.00;;;;;;;;;;5050386;28;20028;-65
2021/03/04 05:22:16;;;;;;;32.40;22.23;;;;;;;;;;5050985;28;20071;-65
2021/03/04 05:24:43;;;;;;;31.85;23.30;;;;;;;;;;5050476;28;20025;-65
2021/03/04 05:27:09;;;;;;;27.27;21.70;;;;;;;;;;5050745;28;20048;-65
2021/03/04 05:29:35;;;;;;;31.52;23.17;;;;;;;;;;5050397;28;20072;-65
2021/03/04 05:32:01;;;;;;;36.15;23.27;;;;;;;;;;5049949;28;20333;-65
2021/03/04 05:34:27;;;;;;;35.35;21.98;;;;;;;;;;5050620;28;20025;-65
2021/03/04 05:36:53;;;;;;;30.35;21.00;;;;;;;;;;5049735;28;20061;-65
2021/03/04 05:39:20;;;;;;;31.23;23.13;;;;;;;;;;5050128;28;20111;-65
2021/03/04 05:41:46;;;;;;;34.67;23.95;;;;;;;;;;5049632;28;20040;-65
2021/03/04 05:44:14;;;;;;;32.78;20.38;;;;;;;;;;5050081;28;20041;-65
2021/03/04 05:46:40;;;;;;;29.40;21.20;;;;;;;;;;5050170;28;20025;-65
2021/03/04 05:49:11;;;;;;;24.27;20.95;;;;;;;;;;5050076;28;20127;-65
2021/03/04 05:51:37;;;;;;;25.70;19.95;;;;;;;;;;5050322;28;20029;-65
2021/03/04 05:54:05;;;;;;;28.30;21.40;;;;;;;;;;5050323;28;20020;-65
2021/03/04 05:56:31;;;;;;;28.35;20.95;;;;;;;;;;5050556;28;20054;-65
2021/03/04 05:58:59;;;;;;;36.63;23.67;;;;;;;;;;5049792;28;20033;-65
2021/03/04 06:01:25;;;;;;;28.80;21.08;;;;;;;;;;5050008;28;20112;-65
2021/03/04 06:03:52;;;;;;;28.95;22.40;;;;;;;;;;5049778;28;20583;-65
2021/03/04 06:06:18;;;;;;;30.08;20.38;;;;;;;;;;5048917;28;20049;-65
2021/03/04 06:08:44;;;;;;;33.35;24.55;;;;;;;;;;5049437;28;20041;-65
2021/03/04 06:11:10;;;;;;;36.38;24.83;;;;;;;;;;5050215;28;20017;-65
2021/03/04 06:13:37;;;;;;;32.30;23.98;;;;;;;;;;5049951;28;20120;-65
2021/03/04 06:16:03;;;;;;;38.38;25.50;;;;;;;;;;5049707;28;20035;-65
2021/03/04 06:18:43;;;;;;;40.33;23.23;;;;;;;;;;5050124;28;20021;-65
2021/03/04 06:21:18;;;;;;;31.77;22.90;;;;;;;;;;5049601;28;20033;-65
2021/03/04 06:23:44;;;;;;;33.42;24.77;;;;;;;;;;5049725;28;20414;-65
2021/03/04 06:26:10;;;;;;;35.17;25.33;;;;;;;;;;5049730;28;20021;-65
2021/03/04 06:28:36;;;;;;;39.40;24.25;;;;;;;;;;5049717;28;20041;-65
2021/03/04 06:31:03;;;;;;;38.63;23.65;;;;;;;;;;5049344;28;20112;-65
2021/03/04 06:33:38;;;;;;;34.45;26.15;;;;;;;;;;5049567;28;20037;-65
2021/03/04 06:36:14;;;;;;;32.72;22.83;;;;;;;;;;5049527;28;20479;-65
2021/03/04 06:38:40;;;;;;;31.52;21.27;;;;;;;;;;5049357;28;20041;-65
2021/03/04 06:41:17;;;;;;;33.90;24.23;;;;;;;;;;5049419;28;20502;-65
2021/03/04 06:43:44;;;;;;;35.67;23.85;;;;;;;;;;5048992;28;20499;-65
2021/03/04 06:46:10;;;;;;;34.55;25.75;;;;;;;;;;5045896;28;20032;-65
2021/03/04 06:48:36;;;;;;;56.33;32.60;;;;;;;;;;5049347;28;20060;-65
2021/03/04 06:51:06;;;;;;;56.20;35.33;;;;;;;;;;5049089;28;20727;-65
2021/03/04 06:53:33;;;;;;;56.13;31.67;;;;;;;;;;5045584;28;20029;-65
2021/03/04 06:56:05;;;;;;;51.80;29.85;;;;;;;;;;5049063;28;20072;-65
2021/03/04 06:58:32;;;;;;;35.38;25.45;;;;;;;;;;5049409;28;20503;-65
2021/03/04 07:01:04;;;;;;;32.35;24.08;;;;;;;;;;5048810;28;20504;-65
2021/03/04 07:03:50;;;;;;;48.10;24.20;;;;;;;;;;5048244;28;20155;-65
2021/03/04 07:06:17;;;;;;;46.75;25.63;;;;;;;;;;5041193;28;20110;-65
2021/03/04 07:08:44;;;;;;;35.13;25.60;;;;;;;;;;5046750;28;20174;-65
2021/03/04 07:11:11;;;;;;;41.30;29.15;;;;;;;;;;5047757;28;20025;-65
2021/03/04 07:13:38;;;;;;;33.47;24.25;;;;;;;;;;5059996;28;20467;-65
2021/03/04 07:16:05;;;;;;;38.30;26.27;;;;;;;;;;5058233;28;20499;-65
2021/03/04 07:18:32;;;;;;;35.63;25.02;;;;;;;;;;5047455;28;20029;-65
2021/03/04 07:20:59;;;;;;;39.75;24.33;;;;;;;;;;5048698;28;20575;-65
2021/03/04 07:23:25;;;;;;;46.40;29.77;;;;;;;;;;5045707;28;20031;-66
2021/03/04 07:25:52;;;;;;;48.10;29.98;;;;;;;;;;5045446;28;20065;-66
2021/03/04 07:28:19;;;;;;;35.50;24.42;;;;;;;;;;5046714;28;20028;-66
2021/03/04 07:30:45;;;;;;;36.28;22.80;;;;;;;;;;5055812;28;20372;-66
2021/03/04 07:33:11;;;;;;;41.03;28.00;;;;;;;;;;5035752;28;20029;-65
2021/03/04 07:35:37;;;;;;;35.95;24.67;;;;;;;;;;5029931;28;20124;-65
2021/03/04 07:38:03;;;;;;;39.83;25.50;;;;;;;;;;5038486;28;20036;-65
2021/03/04 07:40:29;;;;;;;35.10;24.20;;;;;;;;;;5045343;28;20410;-65
2021/03/04 07:43:02;;;;;;;54.80;32.80;;;;;;;;;;5047076;28;20025;-65
2021/03/04 07:45:28;;;;;;;47.88;30.95;;;;;;;;;;5048912;28;20036;-65
2021/03/04 07:47:55;;;;;;;45.17;27.70;;;;;;;;;;5045813;28;20021;-65
2021/03/04 07:50:24;;;;;;;46.10;27.25;;;;;;;;;;5048977;28;20174;-65
2021/03/04 07:52:50;;;;;;;51.10;29.25;;;;;;;;;;5044669;28;20395;-65
2021/03/04 07:55:16;;;;;;;46.13;28.65;;;;;;;;;;5056160;28;20111;-65
2021/03/04 07:57:44;;;;;;;45.33;26.33;;;;;;;;;;5054878;28;20029;-65
2021/03/04 08:00:10;;;;;;;32.88;25.42;;;;;;;;;;5058349;28;20029;-66
2021/03/04 08:02:37;;;;;;;42.88;27.75;;;;;;;;;;5061488;28;20029;-66
2021/03/04 08:05:06;;;;;;;42.28;25.65;;;;;;;;;;5054916;28;20467;-65
2021/03/04 08:07:32;;;;;;;47.38;28.88;;;;;;;;;;5044505;28;20056;-65
2021/03/04 08:10:08;;;;;;;47.78;30.52;;;;;;;;;;5054393;28;20040;-64
2021/03/04 08:12:48;;;;;;;52.08;30.92;;;;;;;;;;5049033;28;20033;-64
2021/03/04 08:15:16;;;;;;;50.42;29.20;;;;;;;;;;5050723;28;20032;-65
2021/03/04 08:17:45;;;;;;;48.75;30.60;;;;;;;;;;5055969;28;20056;-65
2021/03/04 08:20:20;;;;;;;47.88;30.20;;;;;;;;;;5049615;28;20506;-64
2021/03/04 08:22:48;;;;;;;52.53;28.58;;;;;;;;;;5044355;28;20149;-65
2021/03/04 08:25:18;;;;;;;47.05;29.35;;;;;;;;;;5052578;28;20025;-64
2021/03/04 08:27:46;;;;;;;48.47;28.98;;;;;;;;;;5047139;28;20456;-64
2021/03/04 08:30:14;;;;;;;50.90;28.58;;;;;;;;;;5052709;28;20041;-65
2021/03/04 08:32:42;;;;;;;32.70;26.23;;;;;;;;;;5049377;28;20064;-64
2021/03/04 08:35:21;;;;;;;43.17;25.38;;;;;;;;;;5048975;28;20025;-64
2021/03/04 08:37:47;;;;;;;41.17;25.15;;;;;;;;;;5058392;28;20028;-65
2021/03/04 08:40:14;;;;;;;43.55;25.95;;;;;;;;;;5050734;28;20475;-64
2021/03/04 08:42:40;;;;;;;44.63;22.85;;;;;;;;;;5050183;28;20037;-64
2021/03/04 08:45:06;;;;;;;33.80;22.27;;;;;;;;;;5051298;28;20146;-65
2021/03/04 08:47:32;;;;;;;45.80;23.70;;;;;;;;;;5050828;28;20047;-65
2021/03/04 08:49:59;;;;;;;41.67;22.25;;;;;;;;;;5051913;28;20036;-65
2021/03/04 08:52:26;;;;;;;52.55;23.52;;;;;;;;;;5048722;28;20104;-64
2021/03/04 08:54:53;;;;;;;41.08;21.30;;;;;;;;;;5052136;28;20128;-65
2021/03/04 08:57:25;;;;;;;47.25;22.77;;;;;;;;;;5051356;28;20047;-65
2021/03/04 09:00:03;;;;;;;53.10;23.85;;;;;;;;;;5043589;28;20025;-65
2021/03/04 09:02:29;;;;;;;51.20;26.13;;;;;;;;;;5047764;28;20044;-65
2021/03/04 09:04:55;;;;;;;47.17;22.20;;;;;;;;;;5048817;28;20059;-65
2021/03/04 09:07:27;;;;;;;43.28;21.48;;;;;;;;;;5048185;28;20215;-65
2021/03/04 09:09:58;;;;;;;42.75;20.75;;;;;;;;;;5048506;28;20033;-65
2021/03/04 09:12:24;;;;;;;40.17;20.70;;;;;;;;;;5049314;28;20116;-65
2021/03/04 09:14:54;;;;;;;43.90;21.77;;;;;;;;;;5049435;28;20025;-66
2021/03/04 09:17:20;;;;;;;52.85;24.15;;;;;;;;;;5051663;28;20089;-65
2021/03/04 09:19:52;;;;;;;48.67;20.98;;;;;;;;;;5057991;28;20036;-65
2021/03/04 09:22:18;;;;;;;49.67;20.58;;;;;;;;;;5050518;28;20025;-65
2021/03/04 09:24:46;;;;;;;42.88;19.13;;;;;;;;;;5046332;28;20137;-68
2021/03/04 09:27:13;;;;;;;45.17;18.92;;;;;;;;;;5054741;28;20036;-65
2021/03/04 09:29:40;;;;;;;46.90;19.45;;;;;;;;;;5051013;28;20049;-66
2021/03/04 09:32:07;;;;;;;31.25;18.80;;;;;;;;;;5050605;28;20031;-67
2021/03/04 09:34:43;;;;;;;34.80;18.55;;;;;;;;;;5048393;28;21559;-67
2021/03/04 09:37:09;;;;;;;36.08;19.05;;;;;;;;;;5049114;28;20067;-67
2021/03/04 09:39:48;;;;;;;32.38;16.88;;;;;;;;;;5050166;28;20040;-66
2021/03/04 09:42:18;;;;;;;31.52;17.77;;;;;;;;;;5048893;28;20033;-66
2021/03/04 09:44:53;;;;;;;31.33;18.17;;;;;;;;;;5051850;28;20024;-67
2021/03/04 09:47:21;;;;;;;27.63;14.63;;;;;;;;;;5058391;28;20024;-67
2021/03/04 09:49:47;;;;;;;35.30;16.70;;;;;;;;;;5047444;28;20060;-67
2021/03/04 09:52:19;;;;;;;29.50;14.43;;;;;;;;;;5047627;28;20487;-67
2021/03/04 09:54:45;;;;;;;41.40;15.85;;;;;;;;;;5046244;28;20071;-66
2021/03/04 09:57:12;;;;;;;28.00;14.93;;;;;;;;;;5054561;28;20145;-66
2021/03/04 09:59:44;;;;;;;28.45;15.00;;;;;;;;;;5058665;28;20047;-67
2021/03/04 10:02:10;;;;;;;30.73;16.73;;;;;;;;;;5057977;28;20036;-67
2021/03/04 10:04:36;;;;;;;30.05;14.10;;;;;;;;;;5044083;28;20119;-66
2021/03/04 10:07:13;;;;;;;34.50;16.88;;;;;;;;;;5046248;28;20049;-66
2021/03/04 10:09:46;;;;;;;25.20;14.38;;;;;;;;;;5047759;28;20052;-66
2021/03/04 10:12:12;;;;;;;31.27;16.13;;;;;;;;;;5048525;28;20037;-66
2021/03/04 10:14:43;;;;;;;28.83;16.55;;;;;;;;;;5058065;28;20566;-66
2021/03/04 10:17:09;;;;;;;28.08;15.70;;;;;;;;;;5048297;28;21312;-65
2021/03/04 10:19:35;;;;;;;33.42;15.88;;;;;;;;;;5048351;28;20105;-65
2021/03/04 10:22:01;;;;;;;26.10;13.77;;;;;;;;;;5044833;28;20033;-66
2021/03/04 10:24:27;;;;;;;19.13;13.50;;;;;;;;;;5047960;28;20082;-66
2021/03/04 10:26:53;;;;;;;25.58;14.02;;;;;;;;;;5041770;28;20074;-66
2021/03/04 10:29:19;;;;;;;27.80;14.38;;;;;;;;;;5049984;28;20168;-66
2021/03/04 10:31:45;;;;;;;24.27;12.38;;;;;;;;;;5044399;28;20033;-66
2021/03/04 10:34:11;;;;;;;24.58;14.50;;;;;;;;;;5049507;28;20045;-66
2021/03/04 10:36:38;;;;;;;32.42;15.35;;;;;;;;;;5040270;28;20412;-65
2021/03/04 10:39:04;;;;;;;27.17;14.88;;;;;;;;;;5048571;28;20032;-66
2021/03/04 10:41:30;;;;;;;22.85;14.27;;;;;;;;;;5051891;28;20052;-65
2021/03/04 10:43:56;;;;;;;24.33;12.88;;;;;;;;;;5045691;28;20036;-65
2021/03/04 10:46:22;;;;;;;28.02;13.38;;;;;;;;;;5046129;28;20040;-66
2021/03/04 10:48:48;;;;;;;21.52;12.82;;;;;;;;;;5027088;28;20395;-66
2021/03/04 10:51:14;;;;;;;22.23;12.70;;;;;;;;;;5046709;28;20036;-70
2021/03/04 10:53:40;;;;;;;25.27;14.23;;;;;;;;;;5056321;28;20083;-70
2021/03/04 10:56:06;;;;;;;24.55;12.38;;;;;;;;;;5053534;28;20481;-65
2021/03/04 10:58:32;;;;;;;26.45;13.55;;;;;;;;;;5058343;28;20029;-66
2021/03/04 11:00:59;;;;;;;29.50;15.43;;;;;;;;;;5049299;28;20037;-65
2021/03/04 11:03:25;;;;;;;24.38;14.93;;;;;;;;;;5041544;28;20036;-66
2021/03/04 11:05:51;;;;;;;27.75;15.32;;;;;;;;;;5056904;28;20415;-66
2021/03/04 11:08:17;;;;;;;27.13;15.85;;;;;;;;;;5060984;28;20501;-66
2021/03/04 11:10:46;;;;;;;27.98;17.50;;;;;;;;;;5060554;28;20037;-66
2021/03/04 11:13:15;;;;;;;26.95;15.30;;;;;;;;;;5057889;28;20056;-66
2021/03/04 11:15:41;;;;;;;32.25;16.13;;;;;;;;;;5050863;28;20436;-66
2021/03/04 11:18:08;;;;;;;28.27;16.42;;;;;;;;;;5045687;28;20704;-66
2021/03/04 11:20:34;;;;;;;28.40;15.48;;;;;;;;;;5058819;28;20603;-65
2021/03/04 11:23:00;;;;;;;32.20;16.33;;;;;;;;;;5052070;28;20033;-67
2021/03/04 11:25:26;;;;;;;36.20;16.88;;;;;;;;;;5062090;28;20029;-67
2021/03/04 11:27:52;;;;;;;34.45;17.70;;;;;;;;;;5060054;28;20560;-72
2021/03/04 11:30:18;;;;;;;32.88;17.45;;;;;;;;;;5053495;28;20088;-66
2021/03/04 11:32:44;;;;;;;33.35;18.08;;;;;;;;;;5058922;28;20037;-66
2021/03/04 11:35:10;;;;;;;24.48;14.13;;;;;;;;;;5052255;28;20033;-66
2021/03/04 11:37:36;;;;;;;29.30;15.70;;;;;;;;;;5056975;28;20422;-66
2021/03/04 11:40:03;;;;;;;30.13;18.17;;;;;;;;;;5060499;28;20470;-66
2021/03/04 11:42:29;;;;;;;30.02;16.92;;;;;;;;;;5051077;28;20033;-68
2021/03/04 11:44:55;;;;;;;26.25;16.13;;;;;;;;;;5031422;28;20033;-65
2021/03/04 11:47:22;;;;;;;26.52;15.38;;;;;;;;;;5051028;28;20044;-66
2021/03/04 11:49:48;;;;;;;28.88;17.08;;;;;;;;;;5049731;28;20037;-66
2021/03/04 11:52:14;;;;;;;24.58;14.77;;;;;;;;;;5055211;28;20102;-66
2021/03/04 11:54:40;;;;;;;27.40;15.82;;;;;;;;;;5056218;28;20442;-66
2021/03/04 11:57:06;;;;;;;26.58;15.57;;;;;;;;;;5052024;28;20020;-66
2021/03/04 11:59:32;;;;;;;29.83;15.02;;;;;;;;;;5050645;28;20040;-66
2021/03/04 12:01:58;;;;;;;25.75;15.55;;;;;;;;;;5054998;28;20102;-66
2021/03/04 12:04:25;;;;;;;26.63;15.70;;;;;;;;;;5059958;28;20033;-66
2021/03/04 12:06:51;;;;;;;26.42;16.73;;;;;;;;;;5061160;28;20049;-66
2021/03/04 12:09:17;;;;;;;25.52;15.90;;;;;;;;;;5060901;28;20037;-66
2021/03/04 12:11:43;;;;;;;26.77;15.90;;;;;;;;;;5055066;28;20077;-66
2021/03/04 12:14:09;;;;;;;22.10;15.57;;;;;;;;;;5051888;28;20039;-66
2021/03/04 12:16:35;;;;;;;35.25;16.13;;;;;;;;;;5050550;28;21369;-66
2021/03/04 12:19:01;;;;;;;31.02;19.20;;;;;;;;;;5049763;28;20040;-66
2021/03/04 12:21:27;;;;;;;23.75;15.77;;;;;;;;;;5055302;28;20029;-66
2021/03/04 12:23:53;;;;;;;23.98;15.68;;;;;;;;;;5059063;28;20029;-66
2021/03/04 12:26:20;;;;;;;29.20;17.08;;;;;;;;;;5060441;28;20083;-66
2021/03/04 12:28:46;;;;;;;28.52;17.73;;;;;;;;;;5060310;28;20055;-67
2021/03/04 12:31:12;;;;;;;30.70;17.00;;;;;;;;;;5055156;28;20139;-66
2021/03/04 12:33:38;;;;;;;44.25;22.52;;;;;;;;;;5055166;28;20071;-65
2021/03/04 12:36:04;;;;;;;46.92;21.35;;;;;;;;;;5052796;28;20486;-65
2021/03/04 12:38:33;;;;;;;35.80;21.95;;;;;;;;;;5058043;28;20021;-65
2021/03/04 12:40:59;;;;;;;43.38;20.75;;;;;;;;;;5052879;28;20033;-65
2021/03/04 12:43:25;;;;;;;43.05;20.98;;;;;;;;;;5048382;28;20120;-65
2021/03/04 12:45:51;;;;;;;39.67;20.92;;;;;;;;;;5053956;28;20029;-66
2021/03/04 12:48:18;;;;;;;42.05;26.70;;;;;;;;;;5049465;28;20027;-65
2021/03/04 12:50:44;;;;;;;43.05;20.50;;;;;;;;;;5048384;28;20499;-67
2021/03/04 12:53:10;;;;;;;47.83;23.38;;;;;;;;;;5053087;28;20877;-66
2021/03/04 12:55:36;;;;;;;34.33;21.52;;;;;;;;;;5054936;28;20135;-66
2021/03/04 12:58:02;;;;;;;47.80;22.92;;;;;;;;;;5050992;28;20052;-66
2021/03/04 13:00:28;;;;;;;42.92;22.25;;;;;;;;;;5048915;28;20466;-66
2021/03/04 13:02:54;;;;;;;43.60;22.25;;;;;;;;;;5052269;28;20032;-66
2021/03/04 13:05:20;;;;;;;34.60;18.73;;;;;;;;;;5047113;28;20033;-66
2021/03/04 13:07:46;;;;;;;34.15;20.13;;;;;;;;;;5044270;28;20053;-66
2021/03/04 13:10:12;;;;;;;49.45;21.88;;;;;;;;;;5039301;28;20033;-66
2021/03/04 13:12:38;;;;;;;41.15;19.45;;;;;;;;;;5046039;28;20429;-66
2021/03/04 13:15:05;;;;;;;36.72;19.13;;;;;;;;;;5039799;28;20028;-66
2021/03/04 13:17:31;;;;;;;35.50;19.42;;;;;;;;;;5044363;28;20047;-66
2021/03/04 13:19:57;;;;;;;38.05;21.60;;;;;;;;;;5037987;28;20811;-66
2021/03/04 13:22:23;;;;;;;40.10;21.27;;;;;;;;;;5044770;28;20029;-67
2021/03/04 13:24:49;;;;;;;41.38;22.13;;;;;;;;;;5047072;28;20036;-66
2021/03/04 13:27:16;;;;;;;31.38;19.30;;;;;;;;;;5049142;28;20024;-66
2021/03/04 13:29:42;;;;;;;30.67;18.45;;;;;;;;;;5049013;28;20442;-66
2021/03/04 13:32:08;;;;;;;38.88;18.23;;;;;;;;;;5048475;28;20033;-67
2021/03/04 13:34:34;;;;;;;31.75;17.38;;;;;;;;;;5038711;28;20392;-67
2021/03/04 13:37:00;;;;;;;35.92;18.88;;;;;;;;;;5047295;28;20029;-67
2021/03/04 13:39:26;;;;;;;41.22;21.10;;;;;;;;;;5046708;28;20036;-67
2021/03/04 13:41:52;;;;;;;31.92;18.77;;;;;;;;;;5048753;28;20459;-66
2021/03/04 13:44:18;;;;;;;35.25;17.42;;;;;;;;;;5048088;28;20440;-66
2021/03/04 13:46:44;;;;;;;31.40;19.33;;;;;;;;;;5046639;28;20028;-68
2021/03/04 13:49:10;;;;;;;29.10;17.52;;;;;;;;;;5050124;28;20149;-67
2021/03/04 13:51:36;;;;;;;29.25;17.38;;;;;;;;;;5061089;28;20036;-66
2021/03/04 13:54:02;;;;;;;33.08;18.38;;;;;;;;;;5055430;28;20033;-66
2021/03/04 13:56:28;;;;;;;38.38;19.08;;;;;;;;;;5058719;28;20036;-67
2021/03/04 13:58:55;;;;;;;28.40;16.95;;;;;;;;;;5059205;28;20037;-67
2021/03/04 14:01:21;;;;;;;34.45;17.48;;;;;;;;;;5067795;28;20021;-66
2021/03/04 14:03:47;;;;;;;29.13;17.98;;;;;;;;;;5067703;28;20063;-67
2021/03/04 14:06:13;;;;;;;33.58;18.50;;;;;;;;;;5067930;28;20498;-66
2021/03/04 14:08:39;;;;;;;35.35;18.70;;;;;;;;;;5064304;28;20475;-67
2021/03/04 14:11:05;;;;;;;33.03;18.30;;;;;;;;;;5063320;28;20027;-66
2021/03/04 14:13:31;;;;;;;28.92;15.35;;;;;;;;;;5029529;28;20029;-66
2021/03/04 14:15:57;;;;;;;28.58;16.13;;;;;;;;;;5048989;28;20035;-65